createdAt,value
2019-02-07T00:02:14.497Z,92.90
2019-02-07T00:04:42.696Z,93.10
2019-02-07T00:07:11.276Z,93.40
2019-02-07T00:09:39.464Z,93.60
2019-02-07T00:12:07.662Z,94.20
2019-02-07T00:14:39.807Z,94.40
2019-02-07T00:17:05.784Z,94.70
2019-02-07T00:19:33.980Z,94.60
2019-02-07T00:22:02.175Z,94.40
2019-02-07T00:24:30.367Z,94.50
2019-02-07T00:26:58.568Z,94.60
2019-02-07T00:29:26.763Z,94.60
2019-02-07T00:31:54.951Z,95.00
2019-02-07T00:34:23.147Z,95.40
2019-02-07T00:36:51.335Z,95.30
2019-02-07T00:39:19.811Z,95.20
2019-02-07T00:41:47.999Z,95.00
2019-02-07T00:44:16.207Z,95.20
2019-02-07T00:46:44.403Z,95.10
2019-02-07T00:49:12.601Z,95.10
2019-02-07T00:51:40.805Z,94.70
2019-02-07T00:54:08.992Z,95.00
2019-02-07T00:56:39.731Z,95.10
2019-02-07T00:59:07.112Z,95.60
2019-02-07T01:01:35.314Z,95.50
2019-02-07T01:04:03.512Z,95.50
2019-02-07T01:06:31.706Z,95.50
2019-02-07T01:08:59.907Z,95.70
2019-02-07T01:11:28.375Z,95.60
2019-02-07T01:13:57.140Z,95.50
2019-02-07T01:16:25.339Z,95.20
2019-02-07T01:18:53.532Z,95.10
2019-02-07T01:21:21.744Z,95.00
2019-02-07T01:23:49.923Z,94.90
2019-02-07T01:26:18.131Z,94.80
2019-02-07T01:28:46.323Z,94.70
2019-02-07T01:31:14.529Z,95.00
2019-02-07T01:33:42.711Z,94.80
2019-02-07T01:36:10.903Z,94.60
2019-02-07T01:38:39.111Z,94.80
2019-02-07T01:41:07.303Z,94.50
2019-02-07T01:43:35.879Z,94.40
2019-02-07T01:46:04.071Z,94.40
2019-02-07T01:48:32.275Z,94.50
2019-02-07T01:51:00.479Z,94.30
2019-02-07T01:53:28.679Z,94.10
2019-02-07T01:55:56.911Z,94.30
2019-02-07T01:58:25.287Z,94.50
2019-02-07T02:00:53.856Z,94.60
2019-02-07T02:03:22.062Z,94.30
2019-02-07T02:05:50.243Z,94.30
2019-02-07T02:08:18.443Z,94.00
2019-02-07T02:10:46.648Z,94.10
2019-02-07T02:13:14.831Z,93.90
2019-02-07T02:15:43.031Z,94.10
2019-02-07T02:18:11.221Z,94.30
2019-02-07T02:20:39.429Z,94.10
2019-02-07T02:23:07.607Z,93.90
2019-02-07T02:25:35.812Z,93.80
2019-02-07T02:28:04.000Z,93.80
2019-02-07T02:30:34.428Z,93.60
2019-02-07T02:33:03.072Z,94.00
2019-02-07T02:35:31.264Z,93.50
2019-02-07T02:37:59.469Z,92.90
2019-02-07T02:40:27.655Z,93.20
2019-02-07T02:42:55.865Z,92.80
2019-02-07T02:45:36.706Z,92.60
2019-02-07T02:47:55.495Z,92.70
2019-02-07T02:50:23.683Z,92.50
2019-02-07T02:52:51.879Z,92.50
2019-02-07T02:55:33.723Z,92.30
2019-02-07T02:58:01.927Z,92.20
2019-02-07T03:00:40.529Z,92.20
2019-02-07T03:03:16.348Z,92.20
2019-02-07T03:06:02.739Z,92.00
2019-02-07T03:08:32.571Z,92.10
2019-02-07T03:11:11.776Z,91.90
2019-02-07T03:13:50.891Z,91.90
2019-02-07T03:16:29.472Z,91.60
2019-02-07T03:19:02.323Z,91.70
2019-02-07T03:21:38.374Z,91.70
2019-02-07T03:24:08.191Z,91.80
2019-02-07T03:26:43.772Z,91.60
2019-02-07T03:29:13.599Z,91.60
2019-02-07T03:32:01.965Z,91.50
2019-02-07T03:34:31.779Z,91.60
2019-02-07T03:37:01.614Z,91.80
2019-02-07T03:39:31.464Z,91.50
2019-02-07T03:42:01.914Z,91.60
2019-02-07T03:44:34.711Z,91.30
2019-02-07T03:47:13.580Z,91.40
2019-02-07T03:49:46.400Z,91.50
2019-02-07T03:52:34.911Z,91.20
2019-02-07T03:55:04.736Z,91.20
2019-02-07T03:57:37.248Z,91.30
2019-02-07T04:00:10.588Z,91.20
2019-02-07T04:02:40.880Z,91.10
2019-02-07T04:05:10.982Z,90.90
2019-02-07T04:07:40.829Z,90.80
2019-02-07T04:10:22.945Z,91.00
2019-02-07T04:13:10.952Z,90.90
2019-02-07T04:15:58.727Z,90.80
2019-02-07T04:18:41.355Z,91.00
2019-02-07T04:21:29.432Z,91.00
2019-02-07T04:24:18.003Z,91.10
2019-02-07T04:26:49.196Z,91.20
2019-02-07T04:29:19.023Z,91.40
2019-02-07T04:31:48.872Z,91.20
2019-02-07T04:34:35.197Z,91.20
2019-02-07T04:37:05.975Z,91.40
2019-02-07T04:39:52.355Z,91.60
2019-02-07T04:42:22.175Z,91.80
2019-02-07T04:44:52.004Z,91.70
2019-02-07T04:47:31.079Z,91.80
2019-02-07T04:50:00.907Z,91.90
2019-02-07T04:52:30.763Z,92.00
2019-02-07T04:55:12.881Z,92.40
2019-02-07T04:57:43.103Z,92.20
2019-02-07T05:00:32.419Z,92.30
2019-02-07T05:03:02.327Z,92.20
2019-02-07T05:05:34.893Z,92.20
2019-02-07T05:08:10.535Z,92.00
2019-02-07T05:10:52.351Z,91.90
2019-02-07T05:13:28.141Z,91.70
2019-02-07T05:16:14.431Z,91.80
2019-02-07T05:18:56.528Z,92.00
2019-02-07T05:21:42.768Z,92.00
2019-02-07T05:24:12.579Z,92.50
2019-02-07T05:26:58.680Z,92.60
2019-02-07T05:29:34.513Z,92.60
2019-02-07T05:32:04.346Z,92.70
2019-02-07T05:34:34.188Z,92.60
2019-02-07T05:37:20.190Z,92.70
2019-02-07T05:39:49.464Z,92.60
2019-02-07T05:42:22.758Z,92.60
2019-02-07T05:44:52.752Z,92.50
2019-02-07T05:47:39.039Z,92.40
2019-02-07T05:50:23.575Z,92.50
2019-02-07T05:53:12.079Z,92.10
2019-02-07T05:55:45.375Z,91.80
2019-02-07T05:58:31.216Z,91.80
2019-02-07T06:01:09.786Z,91.60
2019-02-07T06:03:56.111Z,91.70
2019-02-07T06:06:42.499Z,91.60
2019-02-07T06:09:18.549Z,91.50
2019-02-07T06:12:04.900Z,91.50
2019-02-07T06:14:34.746Z,91.40
2019-02-07T06:17:21.166Z,91.90
2019-02-07T06:19:50.998Z,92.40
2019-02-07T06:22:32.639Z,93.10
2019-02-07T06:25:02.773Z,93.30
2019-02-07T06:27:44.596Z,93.90
2019-02-07T06:30:33.627Z,94.10
2019-02-07T06:33:12.692Z,94.10
2019-02-07T06:35:42.537Z,94.10
2019-02-07T06:38:27.659Z,94.30
2019-02-07T06:41:13.665Z,94.20
2019-02-07T06:43:43.499Z,94.20
2019-02-07T06:46:28.654Z,94.30
2019-02-07T06:49:01.456Z,94.20
2019-02-07T06:51:46.334Z,94.00
2019-02-07T06:54:22.411Z,93.90
2019-02-07T06:57:01.183Z,93.70
2019-02-07T06:59:39.931Z,93.80
2019-02-07T07:02:26.018Z,93.60
2019-02-07T07:05:11.172Z,93.50
2019-02-07T07:07:59.451Z,93.20
2019-02-07T07:10:38.442Z,93.00
2019-02-07T07:13:08.651Z,92.90
2019-02-07T07:15:40.387Z,92.80
2019-02-07T07:18:10.043Z,92.60
2019-02-07T07:20:39.867Z,92.60
2019-02-07T07:23:09.722Z,92.60
2019-02-07T07:25:39.543Z,92.60
2019-02-07T07:28:09.367Z,92.50
2019-02-07T07:30:39.207Z,92.40
2019-02-07T07:33:09.035Z,92.50
2019-02-07T07:35:47.834Z,92.40
2019-02-07T07:38:34.231Z,92.50
2019-02-07T07:41:04.075Z,92.60
2019-02-07T07:43:50.528Z,93.30
2019-02-07T07:46:26.640Z,93.90
2019-02-07T07:49:02.653Z,94.50
2019-02-07T07:51:47.506Z,94.90
2019-02-07T07:54:33.883Z,95.20
2019-02-07T07:57:19.076Z,95.40
2019-02-07T08:00:05.236Z,95.40
2019-02-07T08:02:43.535Z,95.20
2019-02-07T08:05:29.607Z,95.50
2019-02-07T08:08:05.647Z,95.30
2019-02-07T08:10:52.062Z,94.60
2019-02-07T08:13:27.881Z,92.60
2019-02-07T08:16:03.475Z,92.70
2019-02-07T08:18:36.407Z,93.30
2019-02-07T08:21:22.551Z,92.90
2019-02-07T08:24:07.194Z,92.30
2019-02-07T08:26:55.387Z,92.70
2019-02-07T08:29:37.351Z,92.30
2019-02-07T08:32:16.145Z,90.50
2019-02-07T08:35:02.177Z,90.00
2019-02-07T08:37:48.473Z,90.00
2019-02-07T08:40:24.676Z,90.30
2019-02-07T08:42:57.448Z,90.40
2019-02-07T08:45:27.331Z,89.90
2019-02-07T08:47:58.620Z,90.30
2019-02-07T08:50:34.727Z,89.40
2019-02-07T08:53:22.898Z,88.30
2019-02-07T08:55:52.718Z,89.00
2019-02-07T08:58:22.576Z,89.40
2019-02-07T09:01:04.579Z,88.30
2019-02-07T09:03:50.555Z,87.50
2019-02-07T09:06:20.385Z,84.50
2019-02-07T09:09:02.275Z,82.30
2019-02-07T09:11:32.107Z,84.00
2019-02-07T09:14:10.959Z,84.60
2019-02-07T09:16:40.787Z,85.00
2019-02-07T09:19:10.635Z,81.00
2019-02-07T09:21:40.468Z,76.60
2019-02-07T09:24:10.311Z,72.10
2019-02-07T09:26:52.267Z,69.50
2019-02-07T09:29:22.111Z,70.30
2019-02-07T09:32:10.073Z,71.20
2019-02-07T09:34:49.092Z,72.20
2019-02-07T09:37:21.815Z,72.00
2019-02-07T09:39:51.667Z,75.50
2019-02-07T09:42:37.819Z,77.20
2019-02-07T09:45:10.923Z,77.70
2019-02-07T09:47:56.820Z,79.30
2019-02-07T09:50:26.651Z,77.70
2019-02-07T09:52:59.679Z,79.10
2019-02-07T09:55:45.715Z,77.30
2019-02-07T09:58:18.517Z,78.20
2019-02-07T10:01:00.159Z,76.70
2019-02-07T10:03:46.496Z,78.20
2019-02-07T10:06:22.421Z,78.00
2019-02-07T10:09:01.291Z,77.10
2019-02-07T10:11:43.155Z,75.80
2019-02-07T10:14:15.982Z,74.30
2019-02-07T10:16:52.198Z,69.20
2019-02-07T10:19:30.942Z,67.50
2019-02-07T10:22:17.300Z,69.40
2019-02-07T10:24:50.133Z,69.80
2019-02-07T10:27:22.986Z,70.70
2019-02-07T10:29:55.875Z,72.60
2019-02-07T10:32:43.806Z,72.80
2019-02-07T10:35:22.833Z,73.00
2019-02-07T10:37:59.817Z,74.20
2019-02-07T10:40:35.635Z,73.50
2019-02-07T10:43:12.719Z,74.90
2019-02-07T10:45:57.563Z,74.40
2019-02-07T10:48:44.158Z,74.50
2019-02-07T10:51:08.010Z,71.40
2019-02-07T10:53:40.944Z,63.40
2019-02-07T10:56:10.788Z,59.20
2019-02-07T10:58:40.620Z,58.80
2019-02-07T11:01:10.456Z,59.30
2019-02-07T11:03:43.244Z,61.80
2019-02-07T11:06:18.883Z,63.70
2019-02-07T11:09:05.004Z,65.60
2019-02-07T11:11:51.062Z,65.70
2019-02-07T11:14:40.328Z,66.90
2019-02-07T11:17:12.870Z,66.20
2019-02-07T11:19:45.423Z,65.80
2019-02-07T11:22:23.010Z,68.60
2019-02-07T11:25:09.075Z,64.10
2019-02-07T11:27:51.291Z,64.90
2019-02-07T11:30:24.164Z,61.60
2019-02-07T11:32:53.999Z,58.50
2019-02-07T11:35:32.833Z,58.90
2019-02-07T11:38:05.384Z,57.50
2019-02-07T11:40:44.183Z,56.00
2019-02-07T11:43:16.711Z,55.40
2019-02-07T11:45:52.315Z,57.40
2019-02-07T11:48:28.159Z,56.00
2019-02-07T11:51:13.015Z,54.00
2019-02-07T11:53:51.721Z,56.30
2019-02-07T11:56:30.543Z,55.70
2019-02-07T11:59:09.199Z,55.40
2019-02-07T12:01:41.995Z,56.80
2019-02-07T12:04:30.975Z,58.70
2019-02-07T12:07:17.420Z,59.80
2019-02-07T12:09:47.277Z,60.00
2019-02-07T12:12:33.583Z,56.00
2019-02-07T12:15:06.588Z,52.70
2019-02-07T12:17:36.420Z,54.50
2019-02-07T12:20:11.661Z,54.40
2019-02-07T12:22:42.572Z,54.60
2019-02-07T12:25:24.703Z,55.20
2019-02-07T12:28:12.540Z,54.70
2019-02-07T12:30:58.682Z,54.30
2019-02-07T12:33:28.511Z,56.50
2019-02-07T12:35:58.346Z,56.60
2019-02-07T12:38:40.067Z,59.80
2019-02-07T12:41:09.905Z,61.20
2019-02-07T12:43:51.771Z,60.80
2019-02-07T12:46:40.623Z,59.80
2019-02-07T12:49:10.475Z,57.60
2019-02-07T12:51:56.856Z,55.80
2019-02-07T12:54:26.704Z,58.30
2019-02-07T12:57:13.066Z,59.50
2019-02-07T12:59:42.907Z,56.30
2019-02-07T13:02:18.956Z,57.90
2019-02-07T13:05:00.903Z,57.00
2019-02-07T13:07:48.872Z,60.30
2019-02-07T13:10:24.595Z,61.30
2019-02-07T13:13:00.495Z,63.50
2019-02-07T13:15:30.360Z,63.50
2019-02-07T13:18:02.942Z,57.00
2019-02-07T13:20:35.719Z,54.90
2019-02-07T13:23:11.475Z,53.90
2019-02-07T13:25:50.433Z,54.80
2019-02-07T13:28:26.428Z,57.60
2019-02-07T13:31:08.246Z,58.80
2019-02-07T13:33:40.853Z,59.70
2019-02-07T13:36:10.752Z,61.40
2019-02-07T13:38:46.843Z,63.00
2019-02-07T13:41:33.303Z,59.70
2019-02-07T13:44:18.443Z,56.60
2019-02-07T13:46:54.781Z,59.60
2019-02-07T13:49:27.419Z,59.30
2019-02-07T13:52:00.056Z,61.20
2019-02-07T13:54:32.839Z,60.80
2019-02-07T13:57:08.704Z,59.00
2019-02-07T13:59:50.480Z,55.10
2019-02-07T14:02:36.564Z,52.90
2019-02-07T14:05:17.883Z,52.50
2019-02-07T14:07:50.611Z,52.50
2019-02-07T14:10:20.459Z,52.30
2019-02-07T14:12:53.068Z,52.10
2019-02-07T14:16:00.687Z,53.60
2019-02-07T14:18:33.521Z,57.80
2019-02-07T14:21:15.319Z,60.50
2019-02-07T14:23:51.112Z,61.40
2019-02-07T14:26:20.965Z,62.50
2019-02-07T14:29:09.066Z,63.90
2019-02-07T14:31:38.916Z,63.50
2019-02-07T14:34:17.742Z,63.70
2019-02-07T14:37:03.885Z,65.20
2019-02-07T14:39:39.756Z,65.00
2019-02-07T14:42:15.610Z,60.90
2019-02-07T14:44:45.456Z,59.60
2019-02-07T14:47:25.108Z,57.90
2019-02-07T14:49:53.391Z,57.10
2019-02-07T14:52:21.588Z,57.00
2019-02-07T14:54:49.791Z,59.50
2019-02-07T14:57:17.988Z,61.10
2019-02-07T14:59:46.459Z,61.80
2019-02-07T15:02:15.036Z,63.00
2019-02-07T15:04:43.232Z,61.10
2019-02-07T15:07:11.435Z,60.90
2019-02-07T15:09:39.629Z,61.40
2019-02-07T15:12:07.831Z,63.50
2019-02-07T15:14:36.031Z,63.70
2019-02-07T15:17:04.286Z,64.80
2019-02-07T15:19:32.752Z,62.60
2019-02-07T15:22:00.948Z,64.50
2019-02-07T15:24:29.152Z,64.80
2019-02-07T15:26:57.339Z,66.00
2019-02-07T15:29:25.548Z,66.80
2019-02-07T15:31:53.911Z,66.60
2019-02-07T15:34:22.103Z,67.40
2019-02-07T15:36:50.487Z,64.70
2019-02-07T15:39:19.124Z,63.30
2019-02-07T15:41:47.323Z,61.60
2019-02-07T15:44:15.527Z,63.40
2019-02-07T15:46:43.723Z,64.20
2019-02-07T15:49:11.929Z,65.20
2019-02-07T15:51:40.111Z,65.50
2019-02-07T15:54:08.326Z,62.50
2019-02-07T15:56:36.516Z,63.80
2019-02-07T15:59:09.028Z,66.30
2019-02-07T16:01:38.855Z,68.40
2019-02-07T16:04:27.455Z,70.50
2019-02-07T16:06:55.645Z,71.00
2019-02-07T16:09:23.845Z,73.00
2019-02-07T16:11:52.058Z,72.90
2019-02-07T16:14:20.316Z,72.80
2019-02-07T16:16:48.510Z,72.70
2019-02-07T16:19:17.105Z,73.60
2019-02-07T16:21:45.300Z,74.00
2019-02-07T16:24:15.945Z,74.90
2019-02-07T16:26:43.407Z,75.50
2019-02-07T16:29:11.595Z,76.60
2019-02-07T16:31:39.796Z,77.10
2019-02-07T16:34:07.985Z,77.80
2019-02-07T16:36:36.179Z,78.40
2019-02-07T16:39:06.869Z,78.60
2019-02-07T16:41:35.080Z,78.10
2019-02-07T16:44:03.521Z,78.20
2019-02-07T16:46:31.711Z,78.60
2019-02-07T16:48:59.911Z,78.10
2019-02-07T16:51:28.675Z,78.10
2019-02-07T16:53:56.875Z,76.00
2019-02-07T16:56:25.113Z,75.40
2019-02-07T16:58:53.308Z,75.20
2019-02-07T17:01:21.495Z,76.20
2019-02-07T17:03:49.687Z,76.00
2019-02-07T17:06:17.885Z,76.30
2019-02-07T17:08:46.068Z,76.30
2019-02-07T17:11:14.273Z,76.00
2019-02-07T17:13:42.467Z,76.00
2019-02-07T17:16:10.652Z,76.70
2019-02-07T17:18:38.835Z,75.80
2019-02-07T17:21:11.942Z,76.00
2019-02-07T17:23:36.951Z,76.40
2019-02-07T17:26:05.133Z,77.10
2019-02-07T17:28:33.332Z,77.00
2019-02-07T17:31:01.527Z,77.80
2019-02-07T17:33:29.975Z,78.40
2019-02-07T17:35:58.176Z,79.40
2019-02-07T17:38:26.363Z,80.00
2019-02-07T17:40:54.835Z,80.20
2019-02-07T17:43:23.031Z,80.10
2019-02-07T17:45:51.219Z,80.50
2019-02-07T17:48:19.415Z,80.30
2019-02-07T17:50:48.187Z,80.60
2019-02-07T17:53:16.387Z,80.50
2019-02-07T17:55:44.575Z,80.90
2019-02-07T17:58:13.351Z,81.40
2019-02-07T18:00:51.483Z,82.00
2019-02-07T18:03:19.684Z,82.70
2019-02-07T18:05:47.875Z,83.60
2019-02-07T18:08:16.342Z,83.60
2019-02-07T18:10:44.608Z,84.20
2019-02-07T18:13:12.808Z,84.50
2019-02-07T18:15:41.284Z,84.70
2019-02-07T18:18:09.476Z,84.80
2019-02-07T18:20:37.676Z,85.20
2019-02-07T18:23:05.883Z,85.00
2019-02-07T18:25:34.074Z,84.70
2019-02-07T18:28:02.655Z,85.50
2019-02-07T18:30:30.848Z,85.60
2019-02-07T18:32:59.043Z,84.90
2019-02-07T18:35:27.252Z,84.30
2019-02-07T18:37:55.426Z,84.00
2019-02-07T18:40:28.509Z,84.30
2019-02-07T18:42:56.696Z,84.50
2019-02-07T18:45:24.879Z,84.60
2019-02-07T18:47:53.079Z,85.20
2019-02-07T18:50:29.983Z,84.50
2019-02-07T18:52:58.179Z,84.50
2019-02-07T18:55:26.374Z,84.60
2019-02-07T18:57:54.551Z,84.50
2019-02-07T19:00:31.520Z,84.10
2019-02-07T19:02:59.704Z,83.90
2019-02-07T19:05:27.915Z,84.10
2019-02-07T19:07:56.396Z,83.90
2019-02-07T19:10:26.975Z,84.20
2019-02-07T19:12:55.651Z,84.20
2019-02-07T19:15:30.007Z,84.00
2019-02-07T19:17:58.192Z,83.90
2019-02-07T19:20:26.387Z,84.00
2019-02-07T19:22:54.589Z,83.70
2019-02-07T19:25:22.775Z,83.70
2019-02-07T19:27:50.975Z,83.60
2019-02-07T19:30:22.345Z,83.40
2019-02-07T19:32:50.544Z,83.70
2019-02-07T19:35:18.735Z,83.70
2019-02-07T19:37:46.938Z,82.80
2019-02-07T19:40:19.276Z,83.00
2019-02-07T19:42:47.459Z,82.90
2019-02-07T19:45:23.864Z,82.80
2019-02-07T19:47:52.056Z,82.70
2019-02-07T19:50:23.505Z,83.30
2019-02-07T19:52:51.699Z,82.90
2019-02-07T19:55:22.683Z,83.30
2019-02-07T19:58:10.792Z,83.40
2019-02-07T20:00:39.646Z,82.60
2019-02-07T20:03:07.859Z,82.90
2019-02-07T20:05:36.056Z,83.20
2019-02-07T20:08:04.315Z,83.00
2019-02-07T20:10:32.987Z,82.70
2019-02-07T20:13:01.183Z,82.50
2019-02-07T20:15:34.858Z,82.10
2019-02-07T20:18:03.055Z,82.50
2019-02-07T20:20:31.280Z,83.00
2019-02-07T20:22:59.515Z,82.80
2019-02-07T20:25:47.151Z,82.60
2019-02-07T20:28:15.332Z,83.30
2019-02-07T20:30:44.672Z,83.30
2019-02-07T20:33:12.860Z,82.70
2019-02-07T20:35:41.070Z,83.50
2019-02-07T20:38:09.842Z,82.90
2019-02-07T20:40:38.023Z,83.00
2019-02-07T20:43:06.739Z,83.30
2019-02-07T20:45:34.955Z,83.20
2019-02-07T20:48:03.163Z,83.00
2019-02-07T20:50:31.407Z,83.00
2019-02-07T20:52:59.607Z,83.00
2019-02-07T20:55:27.812Z,83.30
2019-02-07T20:57:56.068Z,83.70
2019-02-07T21:00:27.904Z,84.10
2019-02-07T21:02:56.214Z,83.60
2019-02-07T21:05:24.551Z,83.40
2019-02-07T21:07:52.772Z,83.60
2019-02-07T21:10:23.880Z,84.40
2019-02-07T21:12:52.067Z,83.90
2019-02-07T21:15:20.268Z,83.30
2019-02-07T21:17:48.467Z,83.60
2019-02-07T21:20:21.736Z,83.40
2019-02-07T21:22:50.311Z,83.20
2019-02-07T21:25:24.133Z,84.10
2019-02-07T21:27:52.323Z,83.60
2019-02-07T21:30:22.667Z,84.00
2019-02-07T21:32:51.200Z,83.70
2019-02-07T21:35:20.641Z,84.40
2019-02-07T21:37:48.827Z,83.80
2019-02-07T21:40:24.983Z,83.90
2019-02-07T21:42:54.716Z,84.00
2019-02-07T21:45:22.919Z,84.90
2019-02-07T21:47:51.481Z,85.20
2019-02-07T21:50:27.583Z,85.40
2019-02-07T21:52:55.780Z,84.80
2019-02-07T21:55:26.207Z,84.40
2019-02-07T21:57:54.403Z,84.80
2019-02-07T22:00:28.360Z,84.70
2019-02-07T22:02:56.627Z,84.70
2019-02-07T22:05:24.811Z,84.50
2019-02-07T22:07:53.011Z,84.70
2019-02-07T22:10:21.203Z,85.00
2019-02-07T22:12:49.405Z,85.10
2019-02-07T22:15:19.729Z,86.40
2019-02-07T22:17:48.095Z,86.70
2019-02-07T22:20:21.355Z,87.40
2019-02-07T22:23:08.969Z,87.80
2019-02-07T22:25:37.175Z,88.10
2019-02-07T22:28:06.107Z,88.20
2019-02-07T22:30:35.852Z,88.50
2019-02-07T22:33:06.457Z,89.10
2019-02-07T22:35:34.647Z,89.60
2019-02-07T22:38:02.841Z,89.80
2019-02-07T22:40:31.035Z,90.00
2019-02-07T22:43:00.272Z,90.10
2019-02-07T22:45:28.631Z,89.90
2019-02-07T22:47:56.828Z,90.40
2019-02-07T22:50:27.419Z,90.30
2019-02-07T22:52:56.991Z,90.20
2019-02-07T22:55:25.591Z,90.30
2019-02-07T22:57:53.775Z,90.10
2019-02-07T23:00:36.303Z,90.20
2019-02-07T23:03:09.487Z,90.30
2019-02-07T23:05:37.683Z,90.40
2019-02-07T23:08:06.151Z,90.20
2019-02-07T23:10:34.331Z,90.20
2019-02-07T23:13:03.007Z,90.30
2019-02-07T23:15:31.195Z,90.20
2019-02-07T23:17:59.399Z,90.30
2019-02-07T23:20:27.583Z,90.20
2019-02-07T23:22:55.783Z,90.20
2019-02-07T23:25:23.999Z,90.30
2019-02-07T23:27:52.171Z,90.40
2019-02-07T23:30:20.440Z,90.40
2019-02-07T23:32:48.628Z,90.40
2019-02-07T23:35:16.828Z,90.40
2019-02-07T23:37:45.019Z,90.50
2019-02-07T23:40:18.029Z,90.50
2019-02-07T23:42:46.223Z,90.50
2019-02-07T23:45:16.994Z,90.60
2019-02-07T23:47:45.181Z,90.60
2019-02-07T23:50:13.836Z,90.70
2019-02-07T23:52:42.032Z,90.80
2019-02-07T23:55:11.664Z,90.70
2019-02-07T23:57:39.854Z,90.70
